Time;durP1;ratioP1;P1;durP2;ratioP2;P2;SDS_P1;SDS_P2;PMS_P1;PMS_P2;Temp;Humidity;BMP_temperature;BMP_pressure;BME280_temperature;BME280_humidity;BME280_pressure;Samples;Min_cycle;Max_cycle;Signal;HPM_P1;HPM_P2
2023/03/21 00:00:41;;;;;;;2.28;1.90;;;16.20;72.30;;;;;;5035089;28;20071;-53
2023/03/21 00:03:07;;;;;;;3.00;2.45;;;16.10;72.30;;;;;;5034453;28;20404;-54
2023/03/21 00:05:41;;;;;;;2.78;2.58;;;16.10;72.30;;;;;;5035382;28;20053;-54
2023/03/21 00:08:08;;;;;;;2.50;2.30;;;16.20;72.40;;;;;;5035005;28;20480;-55
2023/03/21 00:10:38;;;;;;;2.97;2.53;;;16.10;72.30;;;;;;5034407;28;20115;-54
2023/03/21 00:13:11;;;;;;;2.30;2.10;;;16.10;72.40;;;;;;5034701;28;20538;-54
2023/03/21 00:15:49;;;;;;;3.08;2.55;;;16.20;72.40;;;;;;5034280;28;20408;-56
2023/03/21 00:18:30;;;;;;;3.70;2.60;;;16.10;72.30;;;;;;5034862;28;20129;-53
2023/03/21 00:20:58;;;;;;;3.47;2.50;;;16.10;72.30;;;;;;5034477;28;20053;-55
2023/03/21 00:23:47;;;;;;;4.05;2.80;;;16.10;72.30;;;;;;5034026;28;20447;-54
2023/03/21 00:26:14;;;;;;;2.90;2.60;;;16.10;72.40;;;;;;5034554;28;20079;-53
2023/03/21 00:28:41;;;;;;;4.20;3.05;;;16.10;72.30;;;;;;5034555;28;20064;-53
2023/03/21 00:31:08;;;;;;;3.45;2.60;;;16.10;72.30;;;;;;5034042;28;20049;-53
2023/03/21 00:33:36;;;;;;;4.05;2.65;;;16.10;72.40;;;;;;5034630;28;20077;-53
2023/03/21 00:36:02;;;;;;;3.10;2.50;;;16.10;72.30;;;;;;5034333;28;20184;-50
2023/03/21 00:38:31;;;;;;;3.97;3.00;;;16.10;72.20;;;;;;5033840;28;20107;-48
2023/03/21 00:40:58;;;;;;;3.00;2.80;;;16.10;72.40;;;;;;5034552;28;20172;-49
2023/03/21 00:43:33;;;;;;;5.18;2.85;;;16.10;72.40;;;;;;5034283;28;20053;-53
2023/03/21 00:45:59;;;;;;;3.28;2.72;;;16.10;72.30;;;;;;5033337;28;20049;-53
2023/03/21 00:48:26;;;;;;;5.00;2.95;;;16.10;72.30;;;;;;5031565;28;20049;-52
2023/03/21 00:50:54;;;;;;;3.42;2.60;;;16.10;72.30;;;;;;5033811;28;20049;-50
2023/03/21 00:53:21;;;;;;;3.40;2.83;;;16.10;72.30;;;;;;5033937;28;20045;-52
2023/03/21 00:55:48;;;;;;;3.55;3.10;;;16.10;72.30;;;;;;5034075;28;20153;-51
2023/03/21 00:58:16;;;;;;;4.30;2.90;;;16.00;72.20;;;;;;5033466;28;20428;-52
2023/03/21 01:00:43;;;;;;;4.97;3.03;;;16.00;72.20;;;;;;5034222;28;20076;-53
2023/03/21 01:03:10;;;;;;;4.00;2.67;;;16.00;72.20;;;;;;5033805;28;20068;-52
2023/03/21 01:06:05;;;;;;;4.70;2.90;;;16.00;72.20;;;;;;5033289;28;20511;-56
2023/03/21 01:08:37;;;;;;;4.18;3.10;;;16.00;72.20;;;;;;5033868;28;20045;-50
2023/03/21 01:11:19;;;;;;;3.47;2.97;;;16.00;72.20;;;;;;5034053;28;20059;-55
2023/03/21 01:13:46;;;;;;;3.30;3.00;;;16.00;72.20;;;;;;5033251;28;20042;-54
2023/03/21 01:16:25;;;;;;;3.67;2.83;;;16.00;72.20;;;;;;5033784;28;20045;-50
2023/03/21 01:18:58;;;;;;;2.72;2.53;;;16.00;72.20;;;;;;5033683;28;20049;-49
2023/03/21 01:21:25;;;;;;;3.40;3.10;;;16.00;72.20;;;;;;5033050;28;20502;-51
2023/03/21 01:23:52;;;;;;;3.83;3.13;;;16.00;72.20;;;;;;5033734;28;20080;-51
2023/03/21 01:26:18;;;;;;;4.07;3.33;;;16.00;72.20;;;;;;5033244;28;20057;-52
2023/03/21 01:28:45;;;;;;;3.53;3.13;;;16.00;72.20;;;;;;5033371;28;20103;-53
2023/03/21 01:31:13;;;;;;;3.25;2.95;;;16.00;72.20;;;;;;5033250;28;20407;-51
2023/03/21 01:33:40;;;;;;;3.80;3.00;;;16.00;72.10;;;;;;5032401;28;20403;-51
2023/03/21 01:36:08;;;;;;;3.30;3.00;;;16.00;72.20;;;;;;5033424;28;20057;-51
2023/03/21 01:38:40;;;;;;;4.13;3.08;;;16.00;72.20;;;;;;5031228;28;20053;-53
2023/03/21 01:41:08;;;;;;;3.78;3.13;;;16.00;72.20;;;;;;5032794;28;20052;-53
2023/03/21 01:43:46;;;;;;;3.97;3.25;;;15.90;72.10;;;;;;5032097;28;20072;-52
2023/03/21 01:46:34;;;;;;;3.63;2.90;;;15.90;72.10;;;;;;5033070;28;20186;-56
2023/03/21 01:49:25;;;;;;;3.38;3.08;;;15.90;72.10;;;;;;5032179;28;20488;-55
2023/03/21 01:51:57;;;;;;;4.78;3.08;;;15.90;72.10;;;;;;5030730;28;20045;-53
2023/03/21 01:54:37;;;;;;;4.75;3.40;;;16.00;72.10;;;;;;5031888;28;20151;-55
2023/03/21 01:57:07;;;;;;;3.20;2.90;;;15.90;72.10;;;;;;5032128;28;20060;-54
2023/03/21 01:59:48;;;;;;;3.60;3.30;;;15.90;72.10;;;;;;5031983;28;20060;-54
2023/03/21 02:02:22;;;;;;;3.40;2.95;;;15.90;72.00;;;;;;5031333;28;20045;-52
2023/03/21 02:04:54;;;;;;;;;;;15.90;72.20;;;;;;5032395;28;20046;-55
2023/03/21 02:07:34;;;;;;;5.50;2.83;;;15.90;72.10;;;;;;5032916;28;19921;-53
2023/03/21 02:10:06;;;;;;;4.15;3.15;;;15.90;72.00;;;;;;5032194;28;20103;-50
2023/03/21 02:12:33;;;;;;;3.53;3.13;;;15.90;72.00;;;;;;5031713;28;20485;-54
2023/03/21 02:15:00;;;;;;;4.78;3.00;;;15.90;72.00;;;;;;5032815;28;20050;-55
2023/03/21 02:17:35;;;;;;;3.90;3.08;;;15.90;72.10;;;;;;5030917;28;20042;-50
2023/03/21 02:20:44;;;;;;;3.42;2.90;;;15.90;72.00;;;;;;5032520;28;20149;-54
2023/03/21 02:23:29;;;;;;;3.67;2.80;;;15.90;72.10;;;;;;5032058;28;20488;-51
2023/03/21 02:26:13;;;;;;;4.07;2.90;;;15.90;72.00;;;;;;5032599;28;20095;-52
2023/03/21 02:28:47;;;;;;;5.72;3.10;;;15.90;72.00;;;;;;5031336;28;20107;-55
2023/03/21 02:31:25;;;;;;;4.32;3.33;;;15.90;72.20;;;;;;5031003;28;20088;-53
2023/03/21 02:34:11;;;;;;;3.83;3.17;;;15.90;72.10;;;;;;5032893;28;20128;-56
2023/03/21 02:36:52;;;;;;;3.28;2.88;;;15.90;72.10;;;;;;5032272;28;20053;-56
2023/03/21 02:39:25;;;;;;;3.83;3.03;;;15.90;72.00;;;;;;5032786;28;20159;-55
2023/03/21 02:42:01;;;;;;;6.22;3.47;;;15.90;72.00;;;;;;5031408;28;20073;-53
2023/03/21 02:44:31;;;;;;;4.70;3.20;;;15.80;72.00;;;;;;5032494;28;20160;-55
2023/03/21 02:47:10;;;;;;;3.90;2.85;;;15.80;72.00;;;;;;5032746;28;20041;-52
2023/03/21 02:49:45;;;;;;;3.35;2.90;;;15.90;72.10;;;;;;5034159;28;20077;-53
2023/03/21 02:52:15;;;;;;;2.90;2.65;;;15.90;72.00;;;;;;5035085;28;20049;-50
2023/03/21 02:54:57;;;;;;;5.32;3.42;;;15.80;72.00;;;;;;5033501;28;20473;-51
2023/03/21 02:57:24;;;;;;;3.15;2.72;;;15.80;72.00;;;;;;5036297;28;20080;-55
2023/03/21 03:00:10;;;;;;;3.80;3.10;;;15.80;72.00;;;;;;5036570;28;20049;-51
2023/03/21 03:02:42;;;;;;;3.35;2.75;;;15.80;72.00;;;;;;5036095;28;20046;-52
2023/03/21 03:05:23;;;;;;;3.30;2.70;;;15.80;72.10;;;;;;5035452;28;20119;-55
2023/03/21 03:07:55;;;;;;;4.00;3.10;;;15.80;72.10;;;;;;5035590;28;20488;-53
2023/03/21 03:10:40;;;;;;;4.85;3.00;;;15.80;72.10;;;;;;5034902;28;20045;-54
2023/03/21 03:13:27;;;;;;;4.97;3.42;;;15.80;72.00;;;;;;5034520;28;20046;-54
2023/03/21 03:16:27;;;;;;;5.65;3.22;;;15.80;72.10;;;;;;5035026;28;20049;-54
2023/03/21 03:18:55;;;;;;;3.95;2.75;;;15.80;72.20;;;;;;5032466;28;20049;-55
2023/03/21 03:21:25;;;;;;;3.30;3.00;;;15.80;72.10;;;;;;5036104;28;20052;-50
2023/03/21 03:23:57;;;;;;;4.60;3.10;;;15.80;72.10;;;;;;5034666;28;20474;-52
2023/03/21 03:26:35;;;;;;;4.22;3.10;;;15.80;72.10;;;;;;5035472;28;20088;-52
2023/03/21 03:29:08;;;;;;;4.88;2.92;;;15.70;72.10;;;;;;5035557;28;20510;-50
2023/03/21 03:31:38;;;;;;;4.03;3.20;;;15.80;72.10;;;;;;5034507;28;20080;-53
2023/03/21 03:34:07;;;;;;;4.70;2.90;;;15.80;72.10;;;;;;5034122;28;20050;-53
2023/03/21 03:36:38;;;;;;;5.15;2.70;;;15.70;72.00;;;;;;5034666;28;20507;-50
2023/03/21 03:39:07;;;;;;;4.40;3.05;;;15.70;72.00;;;;;;5034935;28;20049;-55
2023/03/21 03:41:41;;;;;;;3.33;2.80;;;15.70;72.00;;;;;;5034322;28;20384;-51
2023/03/21 03:44:28;;;;;;;3.00;2.70;;;15.70;72.20;;;;;;5034817;28;20052;-51
2023/03/21 03:47:01;;;;;;;3.28;2.75;;;15.70;72.20;;;;;;5034865;28;20080;-53
2023/03/21 03:49:30;;;;;;;3.85;2.75;;;15.60;72.20;;;;;;5035026;28;20046;-55
2023/03/21 03:52:06;;;;;;;4.80;2.70;;;15.60;72.30;;;;;;5034499;28;20063;-55
2023/03/21 03:54:41;;;;;;;3.92;2.55;;;15.60;72.30;;;;;;5033747;28;20084;-54
2023/03/21 03:57:08;;;;;;;3.88;2.60;;;15.60;72.30;;;;;;5034610;28;20416;-53
2023/03/21 03:59:38;;;;;;;4.40;3.10;;;15.60;72.20;;;;;;5031793;28;20050;-54
2023/03/21 04:02:05;;;;;;;3.95;2.63;;;15.70;72.30;;;;;;5032500;28;20046;-55
2023/03/21 04:04:32;;;;;;;4.07;2.55;;;15.60;72.30;;;;;;5034960;28;20053;-55
2023/03/21 04:07:02;;;;;;;3.45;2.72;;;15.60;72.30;;;;;;5034713;28;20045;-51
2023/03/21 04:09:29;;;;;;;4.38;2.63;;;15.60;72.30;;;;;;5034059;28;20479;-54
2023/03/21 04:12:11;;;;;;;3.25;2.92;;;15.60;72.30;;;;;;5034982;28;20450;-53
2023/03/21 04:14:38;;;;;;;3.97;2.72;;;15.60;72.30;;;;;;5035011;28;20099;-53
2023/03/21 04:17:12;;;;;;;3.65;2.58;;;15.60;72.30;;;;;;5034687;28;20064;-50
2023/03/21 04:19:39;;;;;;;3.60;2.78;;;15.60;72.30;;;;;;5034883;28;20092;-53
2023/03/21 04:22:06;;;;;;;3.80;2.80;;;15.60;72.30;;;;;;5034205;28;20489;-54
2023/03/21 04:24:33;;;;;;;3.58;2.95;;;15.60;72.30;;;;;;5034801;28;20049;-52
2023/03/21 04:26:59;;;;;;;3.25;2.83;;;15.60;72.20;;;;;;5034996;28;20125;-54
2023/03/21 04:29:28;;;;;;;5.70;3.13;;;15.60;72.30;;;;;;5033958;28;20067;-55
2023/03/21 04:31:55;;;;;;;4.80;3.08;;;15.60;72.20;;;;;;5034451;28;20053;-54
2023/03/21 04:34:22;;;;;;;3.80;2.85;;;15.60;72.30;;;;;;5034438;28;20045;-54
2023/03/21 04:36:52;;;;;;;3.92;2.85;;;15.60;72.30;;;;;;5033567;28;20481;-51
2023/03/21 04:39:19;;;;;;;3.92;2.67;;;15.60;72.30;;;;;;5034165;28;20085;-54
2023/03/21 04:41:46;;;;;;;3.63;3.00;;;15.60;72.30;;;;;;5034522;28;20049;-52
2023/03/21 04:44:17;;;;;;;3.47;2.92;;;15.60;72.20;;;;;;5034171;28;20059;-55
2023/03/21 04:46:43;;;;;;;4.35;3.08;;;15.60;72.40;;;;;;5034350;28;20041;-50
2023/03/21 04:49:10;;;;;;;5.15;3.40;;;15.60;72.40;;;;;;5034242;28;20429;-50
2023/03/21 04:51:37;;;;;;;4.43;2.78;;;15.60;72.30;;;;;;5033602;28;20077;-54
2023/03/21 04:54:04;;;;;;;4.50;2.83;;;15.60;72.30;;;;;;5034139;28;20095;-53
2023/03/21 04:56:32;;;;;;;3.30;2.90;;;15.60;72.30;;;;;;5034635;28;20045;-53
2023/03/21 04:59:06;;;;;;;5.47;2.97;;;15.60;72.30;;;;;;5033976;28;20092;-54
2023/03/21 05:01:33;;;;;;;3.50;2.65;;;15.60;72.30;;;;;;5031427;28;20153;-50
2023/03/21 05:04:00;;;;;;;4.35;2.78;;;15.60;72.20;;;;;;5001094;28;20589;-54
2023/03/21 05:06:27;;;;;;;4.65;3.08;;;15.50;72.30;;;;;;5003444;28;20056;-55
2023/03/21 05:08:55;;;;;;;3.88;3.20;;;15.60;72.20;;;;;;5013556;28;20054;-54
2023/03/21 05:11:22;;;;;;;3.80;3.10;;;15.50;72.30;;;;;;5013033;28;20489;-54
2023/03/21 05:13:50;;;;;;;4.78;3.17;;;15.50;72.30;;;;;;5013289;28;20050;-54
2023/03/21 05:16:16;;;;;;;3.92;3.00;;;15.50;72.30;;;;;;5014037;28;20050;-52
2023/03/21 05:18:43;;;;;;;5.53;3.10;;;15.50;72.90;;;;;;5013392;28;20077;-52
2023/03/21 05:21:18;;;;;;;4.60;3.17;;;15.50;72.20;;;;;;5014111;28;20053;-53
2023/03/21 05:23:44;;;;;;;4.28;2.50;;;15.50;72.20;;;;;;5013914;28;20046;-55
2023/03/21 05:26:11;;;;;;;5.57;3.50;;;15.50;72.20;;;;;;5013141;28;20492;-54
2023/03/21 05:28:38;;;;;;;4.78;3.15;;;15.50;72.20;;;;;;5013726;28;20054;-54
2023/03/21 05:31:06;;;;;;;3.47;2.80;;;15.60;72.20;;;;;;5013825;28;20056;-54
2023/03/21 05:33:34;;;;;;;4.88;2.97;;;15.50;72.20;;;;;;5013273;28;20049;-50
2023/03/21 05:36:01;;;;;;;4.53;3.35;;;15.50;72.20;;;;;;5013812;28;20081;-55
2023/03/21 05:38:28;;;;;;;5.10;3.40;;;15.50;72.20;;;;;;5013876;28;20104;-53
2023/03/21 05:40:55;;;;;;;3.97;3.00;;;15.50;72.20;;;;;;5013109;28;20052;-56
2023/03/21 05:43:21;;;;;;;4.65;3.20;;;15.50;72.20;;;;;;5013647;28;20100;-55
2023/03/21 05:45:48;;;;;;;4.50;3.30;;;15.50;72.20;;;;;;5013334;28;20048;-56
2023/03/21 05:48:18;;;;;;;4.05;2.92;;;15.50;72.20;;;;;;5012925;28;20514;-56
2023/03/21 05:50:45;;;;;;;3.65;2.97;;;15.50;72.20;;;;;;5013397;28;20108;-55
2023/03/21 05:53:11;;;;;;;3.80;3.13;;;15.50;72.10;;;;;;5013355;28;20050;-55
2023/03/21 05:55:41;;;;;;;4.72;3.42;;;15.50;72.20;;;;;;5012349;28;20054;-55
2023/03/21 05:58:10;;;;;;;4.20;3.55;;;15.50;72.20;;;;;;5013243;28;20048;-56
2023/03/21 06:00:37;;;;;;;5.13;3.45;;;15.50;72.10;;;;;;5012707;28;20045;-56
2023/03/21 06:03:04;;;;;;;4.38;3.50;;;15.50;72.10;;;;;;5012832;28;20054;-52
2023/03/21 06:05:31;;;;;;;5.35;3.42;;;15.50;72.10;;;;;;5016756;28;20042;-51
2023/03/21 06:07:58;;;;;;;5.88;3.00;;;15.50;72.10;;;;;;5032122;28;20103;-56
2023/03/21 06:10:25;;;;;;;4.50;3.10;;;15.50;72.10;;;;;;5032447;28;20534;-56
2023/03/21 06:12:51;;;;;;;4.30;3.15;;;15.50;72.10;;;;;;5032626;28;20049;-52
2023/03/21 06:15:18;;;;;;;5.53;3.40;;;15.50;72.10;;;;;;5020398;28;20046;-55
2023/03/21 06:17:45;;;;;;;5.25;3.65;;;15.50;72.60;;;;;;5012911;28;20053;-56
2023/03/21 06:20:12;;;;;;;5.25;3.95;;;15.50;72.00;;;;;;5012861;28;20046;-53
2023/03/21 06:22:38;;;;;;;5.35;3.60;;;15.50;72.10;;;;;;5012825;28;20042;-57
2023/03/21 06:25:06;;;;;;;5.97;4.18;;;15.50;72.10;;;;;;5012592;28;20088;-53
2023/03/21 06:27:36;;;;;;;5.30;3.47;;;15.50;72.00;;;;;;5012521;28;20132;-56
2023/03/21 06:30:03;;;;;;;4.70;3.10;;;15.50;72.00;;;;;;5012182;28;20053;-54
2023/03/21 06:32:30;;;;;;;6.57;3.70;;;15.50;72.30;;;;;;5015564;28;20481;-58
2023/03/21 06:34:57;;;;;;;5.57;3.53;;;15.50;72.20;;;;;;5018534;28;20133;-57
2023/03/21 06:37:25;;;;;;;5.25;3.05;;;15.60;71.90;;;;;;4989710;28;20046;-59
2023/03/21 06:39:52;;;;;;;5.35;3.45;;;15.60;72.60;;;;;;4947362;28;20056;-60
2023/03/21 06:42:21;;;;;;;5.63;3.75;;;15.70;72.90;;;;;;4976354;28;20080;-58
2023/03/21 06:44:49;;;;;;;6.75;4.03;;;15.90;72.80;;;;;;4965894;28;20050;-59
2023/03/21 06:47:16;;;;;;;6.10;3.90;;;16.00;72.80;;;;;;4993174;28;20137;-58
2023/03/21 06:49:43;;;;;;;5.55;4.20;;;16.10;72.50;;;;;;4992916;28;20049;-59
2023/03/21 06:52:10;;;;;;;5.97;3.85;;;16.20;73.20;;;;;;4970090;28;20070;-58
2023/03/21 06:54:37;;;;;;;6.78;4.03;;;16.30;74.10;;;;;;4985530;28;20157;-58
2023/03/21 06:57:04;;;;;;;6.07;3.83;;;16.30;73.90;;;;;;5011825;28;20081;-58
2023/03/21 06:59:30;;;;;;;6.13;3.83;;;16.30;73.40;;;;;;5012651;28;20057;-58
2023/03/21 07:01:57;;;;;;;5.88;3.47;;;16.30;73.00;;;;;;5012220;28;20125;-58
2023/03/21 07:04:25;;;;;;;8.07;4.25;;;16.30;73.10;;;;;;5011048;28;20053;-56
2023/03/21 07:06:53;;;;;;;10.50;4.38;;;16.30;72.80;;;;;;5012236;28;20549;-55
2023/03/21 07:09:23;;;;;;;7.85;4.30;;;16.30;72.80;;;;;;5012070;28;20050;-59
2023/03/21 07:11:52;;;;;;;10.52;5.00;;;16.20;73.00;;;;;;5011390;28;20081;-52
2023/03/21 07:14:19;;;;;;;13.30;4.53;;;16.30;73.00;;;;;;5011241;28;20431;-53
2023/03/21 07:16:46;;;;;;;10.00;4.70;;;16.30;73.10;;;;;;5011308;28;20096;-55
2023/03/21 07:19:13;;;;;;;12.98;5.35;;;16.30;72.80;;;;;;5010614;28;20050;-55
2023/03/21 07:21:39;;;;;;;11.20;5.00;;;16.30;72.60;;;;;;5011075;28;20096;-51
2023/03/21 07:24:06;;;;;;;10.73;4.50;;;16.30;72.70;;;;;;5011042;28;20408;-55
2023/03/21 07:26:33;;;;;;;12.02;4.75;;;16.20;72.60;;;;;;5010687;28;20497;-54
2023/03/21 07:29:00;;;;;;;9.93;5.10;;;16.20;72.70;;;;;;5011383;28;20089;-55
2023/03/21 07:31:26;;;;;;;12.45;4.90;;;16.20;72.70;;;;;;5011765;28;20061;-55
2023/03/21 07:33:53;;;;;;;8.30;4.70;;;16.20;72.70;;;;;;5011386;28;20046;-52
2023/03/21 07:36:20;;;;;;;10.40;4.38;;;16.20;72.80;;;;;;5013456;28;20054;-54
2023/03/21 07:38:47;;;;;;;11.43;4.53;;;16.20;72.70;;;;;;5015320;28;20085;-55
2023/03/21 07:41:14;;;;;;;9.32;4.35;;;16.20;72.70;;;;;;5015010;28;20141;-53
2023/03/21 07:43:41;;;;;;;7.10;4.25;;;16.20;72.80;;;;;;5015923;28;20058;-54
2023/03/21 07:46:08;;;;;;;10.85;4.50;;;16.20;72.70;;;;;;5015017;28;20057;-55
2023/03/21 07:48:36;;;;;;;8.02;4.22;;;16.20;72.60;;;;;;5015323;28;20074;-55
2023/03/21 07:51:05;;;;;;;9.18;4.20;;;16.20;72.60;;;;;;5015478;28;20050;-53
2023/03/21 07:53:32;;;;;;;9.57;4.55;;;16.20;72.60;;;;;;5015082;28;20065;-54
2023/03/21 07:55:58;;;;;;;10.07;5.05;;;16.10;72.60;;;;;;5015563;28;20054;-53
2023/03/21 07:58:28;;;;;;;8.43;4.22;;;16.10;72.60;;;;;;5015705;28;20056;-52
2023/03/21 08:00:57;;;;;;;10.52;5.05;;;16.10;72.80;;;;;;5014602;28;20053;-54
2023/03/21 08:03:27;;;;;;;8.63;4.60;;;16.10;72.80;;;;;;5014812;28;20128;-53
2023/03/21 08:05:54;;;;;;;6.70;3.83;;;16.10;72.70;;;;;;5014509;28;20232;-54
2023/03/21 08:08:21;;;;;;;8.43;3.88;;;16.10;72.70;;;;;;5014377;28;20050;-52
2023/03/21 08:10:48;;;;;;;9.77;4.40;;;16.10;72.70;;;;;;5014923;28;20061;-54
2023/03/21 08:13:14;;;;;;;9.98;4.53;;;16.10;72.70;;;;;;5014961;28;20064;-53
2023/03/21 08:15:41;;;;;;;8.15;3.97;;;16.10;72.70;;;;;;5014257;28;20054;-54
2023/03/21 08:18:08;;;;;;;7.80;4.00;;;16.10;72.70;;;;;;5014886;28;20481;-55
2023/03/21 08:20:35;;;;;;;9.30;4.13;;;16.10;72.70;;;;;;5014905;28;20485;-53
2023/03/21 08:23:02;;;;;;;8.57;4.45;;;16.10;72.60;;;;;;5014425;28;20046;-58
2023/03/21 08:25:29;;;;;;;11.82;4.22;;;16.10;72.60;;;;;;5029493;28;20075;-66
2023/03/21 08:27:56;;;;;;;9.52;4.57;;;16.10;72.80;;;;;;5029716;28;20045;-60
2023/03/21 08:30:24;;;;;;;10.55;4.25;;;16.10;72.90;;;;;;4994783;28;20057;-59
2023/03/21 08:32:56;;;;;;;14.73;6.53;;;16.20;73.00;;;;;;4996166;28;20046;-58
2023/03/21 08:35:26;;;;;;;10.63;6.05;;;16.30;73.80;;;;;;5003698;28;20128;-57
2023/03/21 08:37:53;;;;;;;9.93;4.80;;;16.30;73.50;;;;;;5008766;28;20125;-57
2023/03/21 08:40:20;;;;;;;8.10;4.55;;;16.40;73.60;;;;;;5005638;28;20129;-58
2023/03/21 08:42:46;;;;;;;8.82;4.57;;;16.60;73.00;;;;;;5003608;28;20117;-59
2023/03/21 08:45:14;;;;;;;7.20;4.00;;;16.70;72.40;;;;;;5013392;28;20074;-59
2023/03/21 08:47:41;;;;;;;7.07;4.20;;;16.80;72.70;;;;;;5013537;28;20068;-59
2023/03/21 08:50:08;;;;;;;7.05;3.60;;;16.90;72.20;;;;;;5013893;28;20405;-58
2023/03/21 08:52:36;;;;;;;4.35;3.00;;;17.00;72.00;;;;;;5004192;28;20055;-59
2023/03/21 08:55:03;;;;;;;8.93;3.60;;;17.10;71.90;;;;;;5013931;28;20604;-59
2023/03/21 08:57:30;;;;;;;8.18;3.40;;;17.20;71.70;;;;;;5013183;28;20551;-59
2023/03/21 08:59:59;;;;;;;6.45;3.30;;;17.20;72.30;;;;;;5013952;28;20496;-59
2023/03/21 09:02:26;;;;;;;7.30;3.85;;;17.20;72.20;;;;;;5013936;28;20056;-59
2023/03/21 09:04:53;;;;;;;4.97;3.05;;;17.20;72.10;;;;;;5013623;28;20133;-59
2023/03/21 09:07:21;;;;;;;6.07;3.33;;;17.20;72.40;;;;;;5013478;28;20053;-59
2023/03/21 09:09:51;;;;;;;4.97;3.17;;;17.20;72.60;;;;;;5004945;28;20054;-59
2023/03/21 09:12:37;;;;;;;6.28;3.17;;;17.20;72.50;;;;;;5012994;28;20050;-59
2023/03/21 09:15:06;;;;;;;4.35;3.10;;;17.20;72.50;;;;;;5014013;28;20104;-58
2023/03/21 09:17:33;;;;;;;4.93;2.85;;;17.20;72.60;;;;;;5013032;28;20111;-59
2023/03/21 09:20:04;;;;;;;5.80;3.20;;;17.20;72.60;;;;;;5013653;28;20401;-59
2023/03/21 09:22:31;;;;;;;6.45;3.05;;;17.20;72.70;;;;;;5013519;28;20424;-59
2023/03/21 09:24:58;;;;;;;5.60;3.05;;;17.20;72.80;;;;;;5013164;28;20401;-59
2023/03/21 09:27:27;;;;;;;7.60;3.85;;;17.20;72.80;;;;;;5013316;28;20053;-59
2023/03/21 09:29:54;;;;;;;5.63;3.03;;;17.20;72.80;;;;;;5009877;28;20046;-58
2023/03/21 09:32:21;;;;;;;5.63;3.33;;;17.20;72.80;;;;;;5012506;28;20460;-59
2023/03/21 09:34:47;;;;;;;5.63;2.92;;;17.30;73.00;;;;;;5013215;28;20397;-56
2023/03/21 09:37:14;;;;;;;5.38;2.97;;;17.20;72.70;;;;;;5013022;28;20415;-59
2023/03/21 09:39:43;;;;;;;6.45;2.97;;;17.30;72.90;;;;;;5012738;28;20046;-59
2023/03/21 09:42:42;;;;;;;6.20;3.28;;;17.20;72.90;;;;;;5013279;28;20504;-59
2023/03/21 09:45:37;;;;;;;6.40;3.05;;;17.20;72.90;;;;;;5017921;28;20068;-59
2023/03/21 09:48:06;;;;;;;12.65;6.18;;;17.20;73.20;;;;;;5011455;28;20072;-59
2023/03/21 09:50:34;;;;;;;9.70;5.35;;;17.30;73.40;;;;;;5027951;28;20424;-59
2023/03/21 09:53:04;;;;;;;6.47;4.25;;;17.30;73.20;;;;;;5015321;28;20424;-59
2023/03/21 09:55:33;;;;;;;7.20;4.55;;;17.30;73.20;;;;;;5027984;28;20050;-59
2023/03/21 09:58:27;;;;;;;6.13;3.97;;;17.30;73.30;;;;;;5012397;28;20050;-59
2023/03/21 10:01:27;;;;;;;7.13;4.07;;;17.20;73.50;;;;;;5012701;28;20049;-59
2023/03/21 10:03:55;;;;;;;7.72;4.43;;;17.20;73.40;;;;;;5012645;28;20050;-59
2023/03/21 10:06:29;;;;;;;5.63;3.13;;;17.20;73.70;;;;;;5028014;28;20046;-59
2023/03/21 10:08:59;;;;;;;4.93;3.35;;;17.20;73.60;;;;;;5026823;28;20049;-59
2023/03/21 10:11:28;;;;;;;7.05;3.70;;;17.20;73.60;;;;;;5027533;28;20136;-59
2023/03/21 10:13:59;;;;;;;6.05;3.20;;;17.20;73.70;;;;;;5026838;28;20503;-59
2023/03/21 10:16:28;;;;;;;6.85;3.72;;;17.20;73.70;;;;;;4995943;28;20092;-59
2023/03/21 10:18:55;;;;;;;6.88;3.35;;;17.20;73.80;;;;;;5011387;28;20554;-59
2023/03/21 10:21:26;;;;;;;5.55;3.55;;;17.20;73.90;;;;;;5027056;28;20457;-59
2023/03/21 10:24:16;;;;;;;4.63;3.00;;;17.20;73.90;;;;;;5024546;28;20046;-59
2023/03/21 10:26:43;;;;;;;6.65;3.28;;;17.20;73.80;;;;;;5012606;28;20140;-59
2023/03/21 10:29:13;;;;;;;4.55;3.00;;;17.30;73.80;;;;;;5021653;28;20142;-59
2023/03/21 10:31:40;;;;;;;5.43;3.03;;;17.20;73.70;;;;;;5012319;28;20137;-59
2023/03/21 10:34:17;;;;;;;4.38;2.92;;;17.20;73.60;;;;;;5012215;28;20046;-59
2023/03/21 10:36:44;;;;;;;5.25;3.22;;;17.30;73.60;;;;;;5011927;28;20079;-58
2023/03/21 10:39:33;;;;;;;7.05;3.15;;;17.30;73.60;;;;;;5012353;28;20046;-59
2023/03/21 10:41:59;;;;;;;5.20;2.90;;;17.20;73.50;;;;;;5010163;28;20484;-59
2023/03/21 10:44:34;;;;;;;4.35;2.65;;;17.30;73.60;;;;;;5012460;28;20050;-59
2023/03/21 10:47:04;;;;;;;4.18;2.65;;;17.20;73.60;;;;;;5012707;28;20045;-59
2023/03/21 10:49:31;;;;;;;4.47;2.78;;;17.20;73.80;;;;;;5026753;28;20523;-58
2023/03/21 10:52:16;;;;;;;4.78;2.90;;;17.20;73.80;;;;;;5012555;28;20046;-59
2023/03/21 10:54:42;;;;;;;5.22;3.08;;;17.20;73.90;;;;;;5012348;28;20089;-59
2023/03/21 10:57:19;;;;;;;3.47;2.65;;;17.20;73.90;;;;;;5026905;28;20428;-59
2023/03/21 10:59:56;;;;;;;3.28;2.60;;;17.20;74.00;;;;;;5027097;28;20050;-59
2023/03/21 11:02:25;;;;;;;5.03;2.80;;;17.20;74.20;;;;;;5027494;28;20046;-59
2023/03/21 11:04:52;;;;;;;4.22;2.70;;;17.10;74.00;;;;;;5026850;28;20485;-59
2023/03/21 11:07:19;;;;;;;5.80;2.78;;;17.20;74.10;;;;;;5027487;28;20079;-58
2023/03/21 11:09:53;;;;;;;4.50;2.90;;;17.20;74.00;;;;;;5026801;28;20046;-58
2023/03/21 11:12:36;;;;;;;4.35;2.88;;;17.20;73.90;;;;;;5014888;28;20045;-58
2023/03/21 11:15:41;;;;;;;6.40;2.67;;;17.20;74.50;;;;;;5028988;28;20046;-59
2023/03/21 11:18:24;;;;;;;5.28;3.00;;;17.20;73.80;;;;;;5004239;28;20572;-58
2023/03/21 11:21:12;;;;;;;4.63;2.70;;;17.30;73.90;;;;;;4998782;28;20074;-58
2023/03/21 11:23:47;;;;;;;6.78;2.85;;;17.30;73.70;;;;;;4996399;28;20051;-58
2023/03/21 11:26:43;;;;;;;6.38;2.65;;;17.30;73.70;;;;;;4995626;28;20473;-58
2023/03/21 11:29:29;;;;;;;4.22;2.63;;;17.30;73.60;;;;;;5002093;28;20397;-59
2023/03/21 11:32:16;;;;;;;4.45;3.25;;;17.30;73.70;;;;;;5029218;28;20081;-58
2023/03/21 11:34:48;;;;;;;4.53;2.90;;;17.30;73.70;;;;;;4983322;28;20053;-60
2023/03/21 11:37:36;;;;;;;4.93;2.97;;;17.40;73.70;;;;;;5012293;28;20070;-58
2023/03/21 11:40:17;;;;;;;4.68;3.25;;;17.40;74.00;;;;;;5014693;28;20145;-59
2023/03/21 11:42:47;;;;;;;6.03;3.85;;;17.40;73.70;;;;;;5006586;28;20137;-59
2023/03/21 11:45:17;;;;;;;8.00;4.00;;;17.50;75.20;;;;;;4996806;28;20058;-58
2023/03/21 11:47:45;;;;;;;5.85;3.75;;;17.50;76.40;;;;;;4953260;28;20078;-57
2023/03/21 11:50:18;;;;;;;5.97;4.18;;;17.50;77.10;;;;;;4986441;28;20152;-56
2023/03/21 11:53:05;;;;;;;7.00;4.38;;;17.60;76.90;;;;;;4995463;28;20050;-57
2023/03/21 11:55:36;;;;;;;6.32;4.40;;;17.50;76.70;;;;;;5001169;28;20085;-58
2023/03/21 11:58:13;;;;;;;6.72;4.15;;;17.60;76.80;;;;;;5010750;28;20050;-57
2023/03/21 12:00:51;;;;;;;6.40;4.35;;;17.60;76.90;;;;;;4992667;28;20413;-57
2023/03/21 12:03:36;;;;;;;6.63;4.22;;;17.60;76.60;;;;;;4986071;28;20057;-58
2023/03/21 12:06:21;;;;;;;6.68;4.22;;;17.60;76.40;;;;;;4995418;28;20141;-58
2023/03/21 12:08:53;;;;;;;15.57;9.27;;;17.70;75.80;;;;;;5008895;28;20074;-59
2023/03/21 12:11:41;;;;;;;8.85;5.80;;;17.60;71.20;;;;;;5009617;28;20529;-58
2023/03/21 12:14:15;;;;;;;10.90;7.57;;;17.50;73.30;;;;;;5006598;28;20161;-58
2023/03/21 12:16:51;;;;;;;10.65;7.57;;;17.60;72.20;;;;;;4974623;28;20047;-59
2023/03/21 12:19:17;;;;;;;16.80;8.13;;;17.60;71.50;;;;;;4976280;28;20074;-59
2023/03/21 12:22:02;;;;;;;13.25;7.78;;;17.50;70.60;;;;;;4975001;28;20042;-59
2023/03/21 12:24:49;;;;;;;13.52;8.40;;;17.50;71.80;;;;;;4976042;28;20410;-60
2023/03/21 12:27:16;;;;;;;11.45;7.57;;;17.60;71.20;;;;;;4975468;28;20398;-59
2023/03/21 12:30:22;;;;;;;11.13;7.60;;;17.60;70.90;;;;;;4975071;28;20073;-59
2023/03/21 12:33:17;;;;;;;11.43;6.80;;;17.60;72.10;;;;;;4975855;28;20101;-60
2023/03/21 12:36:01;;;;;;;12.85;6.97;;;17.70;72.60;;;;;;4973919;28;20078;-59
2023/03/21 12:38:34;;;;;;;12.07;7.75;;;17.70;72.70;;;;;;4974764;28;20046;-59
2023/03/21 12:41:24;;;;;;;17.23;8.70;;;17.70;74.90;;;;;;4975495;28;20059;-59
2023/03/21 12:44:14;;;;;;;14.35;8.55;;;17.70;74.90;;;;;;4982779;28;20157;-59
2023/03/21 12:46:54;;;;;;;13.07;7.82;;;17.70;74.60;;;;;;4975860;28;20047;-59
2023/03/21 12:49:31;;;;;;;13.23;7.75;;;17.70;75.10;;;;;;4974009;28;20047;-59
2023/03/21 12:52:20;;;;;;;10.15;6.82;;;17.60;75.50;;;;;;4973851;28;20051;-59
2023/03/21 12:54:51;;;;;;;14.63;6.68;;;17.70;75.10;;;;;;4984956;28;20046;-59
2023/03/21 12:57:24;;;;;;;10.85;6.28;;;17.60;75.00;;;;;;5009055;28;20042;-59
2023/03/21 13:00:09;;;;;;;8.13;6.10;;;17.60;75.10;;;;;;4999243;28;20043;-58
2023/03/21 13:03:00;;;;;;;9.73;5.47;;;17.60;75.10;;;;;;4974600;28;20137;-58
2023/03/21 13:05:50;;;;;;;9.15;5.95;;;17.60;75.00;;;;;;4974686;28;20077;-58
2023/03/21 13:08:42;;;;;;;10.90;6.25;;;17.60;75.00;;;;;;4973611;28;20073;-58
2023/03/21 13:11:12;;;;;;;9.38;5.65;;;17.60;74.80;;;;;;4979520;28;20049;-58